Terminal Aerodrome Forecast
Issued by NWS Jackson, MS

Home | Current Version | Previous Version | Text Only | Print | Product List | Glossary On
Versions: 1 2 3 4 5 6 7 8 9 10 11 12 13 14 15
505
FTUS44 KJAN 012327
TAFGLH
TAF
KGLH 012327Z 0200/0224 15004KT P6SM SCT030
     FM020800 19003KT 4SM BR OVC025
     FM021500 35008KT 6SM -SHRA VCTS OVC015CB
     FM021800 34010KT P6SM -RA OVC025
     FM022100 36012KT P6SM OVC050=

USA.gov is the U.S. government's official web portal to all federal, state and local government web resources and services.